Time;durP1;ratioP1;P1;durP2;ratioP2;P2;SDS_P1;SDS_P2;PMS_P1;PMS_P2;Temp;Humidity;BMP_temperature;BMP_pressure;BME280_temperature;BME280_humidity;BME280_pressure;Samples;Min_cycle;Max_cycle;Signal;HPM_P1;HPM_P2
2022/01/18 00:01:56;;;;;;;13.83;8.53;;;;;;;17.88;44.70;102317.44;5051867;28;20961;-60
2022/01/18 00:04:21;;;;;;;10.77;7.90;;;;;;;17.42;46.69;102311.28;5051904;28;20411;-59
2022/01/18 00:06:50;;;;;;;12.87;8.40;;;;;;;17.77;45.65;102324.63;5049444;28;20200;-60
2022/01/18 00:09:19;;;;;;;17.30;8.60;;;;;;;18.13;45.45;102324.44;5043502;28;20380;-60
2022/01/18 00:11:51;;;;;;;20.57;8.40;;;;;;;18.27;45.12;102320.31;5050217;28;20472;-59
2022/01/18 00:14:27;;;;;;;13.50;8.83;;;;;;;18.37;45.10;102319.22;5042461;28;20509;-59
2022/01/18 00:17:03;;;;;;;16.00;7.53;;;;;;;18.39;46.00;102303.41;5043111;28;20514;-60
2022/01/18 00:19:29;;;;;;;10.40;8.10;;;;;;;18.44;46.25;102308.97;5051499;28;20397;-60
2022/01/18 00:24:26;;;;;;;10.53;7.33;;;;;;;18.62;45.75;102319.28;5050853;28;20180;-59
2022/01/18 00:26:51;;;;;;;11.40;7.30;;;;;;;18.63;46.07;102320.97;5048279;28;20761;-59
2022/01/18 00:29:19;;;;;;;17.80;7.87;;;;;;;18.71;46.59;102320.13;5050565;28;20204;-59
2022/01/18 00:34:33;;;;;;;9.67;6.10;;;;;;;18.68;46.10;102326.53;5016091;28;20422;-61
2022/01/18 00:39:24;;;;;;;9.50;5.90;;;;;;;18.66;47.00;102320.28;5030957;28;20788;-60
2022/01/18 00:41:50;;;;;;;8.77;6.40;;;;;;;18.60;47.00;102313.06;5031206;28;20259;-59
2022/01/18 00:44:15;;;;;;;12.73;6.40;;;;;;;18.61;47.25;102314.72;5031098;28;20173;-60
2022/01/18 00:46:41;;;;;;;8.50;6.27;;;;;;;18.55;47.48;102316.06;5031337;28;20661;-60
2022/01/18 00:49:06;;;;;;;15.63;6.90;;;;;;;18.54;47.15;102330.69;5039712;28;20325;-59
2022/01/18 00:51:38;;;;;;;9.07;6.00;;;;;;;18.51;47.63;102334.25;5043497;28;20188;-60
2022/01/18 00:54:05;;;;;;;9.07;5.13;;;;;;;18.52;47.69;102325.31;5049279;28;20646;-60
2022/01/18 00:56:31;;;;;;;10.20;5.87;;;;;;;18.54;47.51;102325.84;5048328;28;20429;-60
2022/01/18 00:58:56;;;;;;;8.07;6.20;;;;;;;18.56;47.76;102326.31;5047409;28;21009;-60
2022/01/18 01:01:23;;;;;;;10.53;6.00;;;;;;;18.53;47.65;102321.28;5050285;28;20466;-59
2022/01/18 01:03:50;;;;;;;8.07;5.73;;;;;;;18.55;47.46;102327.50;5050199;28;20182;-59
2022/01/18 01:06:15;;;;;;;8.80;5.57;;;;;;;18.53;47.71;102324.16;5047194;28;20564;-59
2022/01/18 01:08:41;;;;;;;8.67;6.10;;;;;;;18.51;47.84;102331.38;5037896;28;20446;-59
2022/01/18 01:11:07;;;;;;;8.53;5.20;;;;;;;18.51;47.79;102326.47;5030411;28;20176;-59
2022/01/18 01:13:33;;;;;;;9.53;5.80;;;;;;;18.53;47.31;102329.88;5047702;28;20192;-59
2022/01/18 01:44:51;;;;;;;5.47;4.37;;;;;;;18.47;48.89;102336.88;5030385;28;20415;-59
2022/01/18 01:47:22;;;;;;;6.03;4.33;;;;;;;18.51;48.71;102337.91;5029908;28;20465;-59
2022/01/18 01:49:50;;;;;;;7.67;4.80;;;;;;;18.50;48.78;102333.38;5029594;28;20419;-59
2022/01/18 01:52:15;;;;;;;5.37;4.10;;;;;;;18.46;49.13;102338.06;5030078;28;20415;-59
2022/01/18 01:54:41;;;;;;;6.23;3.97;;;;;;;18.46;48.93;102340.94;5030532;28;20427;-59
2022/01/18 01:57:07;;;;;;;7.67;4.67;;;;;;;18.45;49.13;102338.41;5029780;28;20537;-59
2022/01/18 01:59:32;;;;;;;5.80;4.37;;;;;;;18.49;49.23;102337.44;5029921;28;20223;-60
2022/01/18 02:01:57;;;;;;;6.90;4.50;;;;;;;18.43;49.03;102338.75;5029749;28;20227;-59
2022/01/18 02:04:23;;;;;;;7.03;4.27;;;;;;;18.41;49.19;102340.25;5011889;28;20180;-59
2022/01/18 02:06:48;;;;;;;5.00;3.63;;;;;;;18.42;49.61;102331.31;5029920;28;20200;-59
2022/01/18 02:09:14;;;;;;;5.63;3.93;;;;;;;18.43;49.47;102333.03;5029628;28;20207;-59
2022/01/18 02:11:39;;;;;;;6.70;4.13;;;;;;;18.45;49.25;102327.81;5032792;28;20203;-59
2022/01/18 02:14:07;;;;;;;6.53;4.20;;;;;;;18.44;49.17;102319.56;5049805;28;20626;-60
2022/01/18 02:22:04;;;;;;;5.50;3.93;;;;;;;18.39;49.55;102314.00;5046607;28;20417;-59
2022/01/18 02:24:29;;;;;;;5.90;3.83;;;;;;;18.39;49.60;102317.72;5049315;28;20415;-59
2022/01/18 02:26:54;;;;;;;5.57;3.77;;;;;;;18.38;50.13;102318.88;5049571;28;20203;-59
2022/01/18 02:29:20;;;;;;;6.23;4.03;;;;;;;18.39;49.54;102311.13;5048937;28;20221;-59
2022/01/18 02:31:46;;;;;;;6.83;3.70;;;;;;;18.41;49.51;102320.25;5045879;28;20183;-59
2022/01/18 02:34:16;;;;;;;5.77;3.83;;;;;;;18.40;49.99;102313.66;5029645;28;20184;-59
2022/01/18 02:36:42;;;;;;;5.10;3.73;;;;;;;18.42;49.52;102311.31;5012570;28;20171;-59
2022/01/18 02:39:07;;;;;;;5.90;3.93;;;;;;;18.37;49.81;102302.88;5029314;28;20406;-59
2022/01/18 02:41:33;;;;;;;7.23;3.73;;;;;;;18.36;49.74;102304.06;5031319;28;20195;-59
2022/01/18 02:44:00;;;;;;;5.93;4.10;;;;;;;18.40;49.70;102316.53;5048924;28;20587;-59
2022/01/18 02:46:25;;;;;;;5.90;3.90;;;;;;;18.39;49.71;102314.84;5049692;28;20302;-59
2022/01/18 02:48:50;;;;;;;6.30;3.60;;;;;;;18.42;49.68;102311.31;5045379;28;20537;-59
2022/01/18 02:51:16;;;;;;;8.57;3.87;;;;;;;18.43;49.83;102315.03;5046879;28;20188;-59
2022/01/18 02:54:10;;;;;;;5.40;3.63;;;;;;;18.44;49.76;102316.69;5053824;28;20183;-59
2022/01/18 02:56:53;;;;;;;7.63;4.63;;;;;;;18.43;50.00;102321.59;5053423;28;20168;-59
2022/01/18 02:59:49;;;;;;;5.27;3.83;;;;;;;18.41;49.81;102320.25;5045618;28;20411;-59
2022/01/18 03:05:04;;;;;;;5.03;3.30;;;;;;;18.45;49.79;102313.50;5021503;28;20473;-59
2022/01/18 03:07:29;;;;;;;5.13;3.57;;;;;;;18.40;49.81;102315.66;5053543;28;20524;-59
2022/01/18 03:09:54;;;;;;;5.37;3.87;;;;;;;18.37;50.29;102311.47;5052940;28;20229;-59
2022/01/18 03:12:20;;;;;;;5.40;3.60;;;;;;;18.38;50.35;102312.31;5052811;28;20183;-59
2022/01/18 03:14:45;;;;;;;4.03;3.07;;;;;;;18.40;50.07;102313.66;5051390;28;20249;-59
2022/01/18 03:17:11;;;;;;;5.90;4.00;;;;;;;18.36;50.21;102315.50;5040268;28;20643;-59
2022/01/18 03:19:36;;;;;;;5.60;3.77;;;;;;;18.36;50.05;102300.38;5052018;28;20259;-59
2022/01/18 03:22:03;;;;;;;7.23;3.67;;;;;;;18.41;50.13;102303.09;5052997;28;20542;-59
2022/01/18 03:29:38;;;;;;;5.20;3.70;;;;;;;18.36;50.14;102298.34;5048149;28;20629;-59
2022/01/18 03:32:04;;;;;;;6.80;3.67;;;;;;;18.38;50.32;102303.72;5032360;28;20418;-59
2022/01/18 03:34:29;;;;;;;5.33;3.50;;;;;;;18.36;50.35;102304.06;5032912;28;20176;-59
2022/01/18 03:36:55;;;;;;;5.90;3.60;;;;;;;18.40;50.01;102313.66;5035077;28;20430;-59
2022/01/18 03:39:20;;;;;;;5.10;3.40;;;;;;;18.40;50.19;102307.09;5032309;28;20199;-59
2022/01/18 03:41:53;;;;;;;5.70;3.50;;;;;;;18.39;50.37;102306.28;5047533;28;20183;-59
2022/01/18 03:44:19;;;;;;;6.60;3.07;;;;;;;18.37;50.37;102305.75;5052202;28;20156;-59
2022/01/18 03:46:45;;;;;;;5.60;3.47;;;;;;;18.37;50.11;102294.31;5052419;28;20474;-59
2022/01/18 03:49:11;;;;;;;5.50;3.30;;;;;;;18.38;50.32;102298.88;5051766;28;20226;-59
2022/01/18 03:51:37;;;;;;;4.50;3.20;;;;;;;18.35;50.27;102299.53;5052377;28;20403;-59
2022/01/18 03:54:02;;;;;;;4.47;3.37;;;;;;;18.37;49.98;102302.06;5052283;28;20652;-59
2022/01/18 03:56:28;;;;;;;5.13;3.50;;;;;;;18.37;50.42;102302.88;5052422;28;20476;-59
2022/01/18 03:58:53;;;;;;;4.77;3.20;;;;;;;18.37;50.12;102300.03;5051683;28;20178;-59
2022/01/18 04:01:19;;;;;;;6.80;3.17;;;;;;;18.36;50.11;102303.25;5051949;28;20698;-59
2022/01/18 04:03:44;;;;;;;4.07;3.40;;;;;;;18.36;50.44;102301.19;5051095;28;20635;-59
2022/01/18 04:06:10;;;;;;;5.90;3.53;;;;;;;18.38;50.28;102301.72;5051681;28;20272;-59
2022/01/18 04:08:35;;;;;;;4.90;3.67;;;;;;;18.39;50.29;102300.53;5052187;28;20225;-59
2022/01/18 04:11:01;;;;;;;5.77;3.40;;;;;;;18.34;50.56;102300.69;5051255;28;20219;-59
2022/01/18 04:13:26;;;;;;;3.73;2.63;;;;;;;18.40;50.08;102301.38;5048644;28;20593;-59
2022/01/18 04:15:52;;;;;;;4.40;3.40;;;;;;;18.40;50.23;102295.66;5052275;28;20180;-59
2022/01/18 04:28:54;;;;;;;5.53;3.60;;;;;;;18.36;50.70;102301.19;5051154;28;20442;-59
2022/01/18 04:31:20;;;;;;;4.47;3.20;;;;;;;18.39;50.30;102302.56;5051289;28;20937;-59
2022/01/18 04:33:45;;;;;;;5.03;3.17;;;;;;;18.41;50.46;102301.03;5033944;28;20419;-59
2022/01/18 04:36:11;;;;;;;4.20;3.00;;;;;;;18.41;50.38;102303.91;5031961;28;20250;-59
2022/01/18 04:38:36;;;;;;;4.33;2.80;;;;;;;18.38;50.83;102313.16;5030902;28;20546;-59
2022/01/18 04:41:08;;;;;;;4.07;2.87;;;;;;;18.40;50.30;102307.94;5031032;28;20557;-59
2022/01/18 04:48:50;;;;;;;5.20;3.57;;;;;;;18.38;50.52;102320.88;5051073;28;20457;-59
2022/01/18 04:51:15;;;;;;;4.07;3.07;;;;;;;18.35;50.36;102310.97;5051715;28;20548;-62
2022/01/18 04:53:47;;;;;;;4.27;3.00;;;;;;;18.40;50.18;102318.53;5044759;28;20445;-59
2022/01/18 04:56:16;;;;;;;5.50;3.30;;;;;;;18.37;50.43;102316.34;5048774;28;20184;-60
2022/01/18 04:58:42;;;;;;;3.40;2.57;;;;;;;18.36;50.52;102324.06;5047664;28;20854;-59
2022/01/18 05:01:08;;;;;;;4.13;3.20;;;;;;;18.37;50.32;102319.22;5050686;28;20496;-59
2022/01/18 05:03:33;;;;;;;3.97;3.00;;;;;;;18.40;50.18;102315.66;5029859;28;20255;-59
2022/01/18 05:06:01;;;;;;;3.90;2.93;;;;;;;18.40;50.82;102330.81;5030887;28;20557;-59
2022/01/18 05:08:26;;;;;;;3.90;2.70;;;;;;;18.40;50.37;102330.81;5030855;28;20188;-59
2022/01/18 05:10:57;;;;;;;6.20;3.57;;;;;;;18.39;50.43;102328.28;5030469;28;20763;-59
2022/01/18 05:15:59;;;;;;;4.30;2.97;;;;;;;18.38;50.41;102336.03;5050012;28;20417;-59
2022/01/18 05:21:13;;;;;;;4.17;2.97;;;;;;;18.41;50.37;102335.38;5050853;28;20417;-59
2022/01/18 05:23:38;;;;;;;4.60;3.27;;;;;;;18.34;50.74;102329.28;5043512;28;20199;-59
2022/01/18 05:26:04;;;;;;;4.70;2.87;;;;;;;18.37;50.41;102334.34;5030257;28;20423;-59
2022/01/18 05:28:29;;;;;;;4.40;3.10;;;;;;;18.36;50.73;102334.69;5033277;28;20208;-59
2022/01/18 05:30:54;;;;;;;4.80;3.37;;;;;;;18.40;50.45;102336.53;5031614;28;20176;-59
2022/01/18 05:33:22;;;;;;;4.00;2.77;;;;;;;18.37;50.44;102328.63;5045076;28;20195;-59
2022/01/18 05:35:48;;;;;;;4.93;3.13;;;;;;;18.37;50.57;102337.19;5050243;28;20662;-59
2022/01/18 05:38:13;;;;;;;3.47;2.57;;;;;;;18.37;50.64;102337.19;5050055;28;20414;-59
2022/01/18 05:40:39;;;;;;;5.00;3.00;;;;;;;18.37;50.51;102324.94;5050004;28;20233;-59
2022/01/18 05:43:04;;;;;;;5.13;3.47;;;;;;;18.34;50.54;102320.72;5037607;28;20545;-59
2022/01/18 05:45:30;;;;;;;3.97;2.80;;;;;;;18.38;50.29;102324.59;5029986;28;20176;-59
2022/01/18 05:47:56;;;;;;;4.47;2.73;;;;;;;18.38;50.21;102320.88;5032847;28;20713;-59
2022/01/18 05:50:21;;;;;;;3.53;2.63;;;;;;;18.40;50.31;102324.25;5049940;28;20182;-59
2022/01/18 05:52:47;;;;;;;3.80;3.00;;;;;;;18.39;50.40;102332.00;5048357;28;20187;-59
2022/01/18 05:55:12;;;;;;;4.60;3.27;;;;;;;18.40;50.82;102327.97;5049313;28;20639;-59
2022/01/18 05:57:38;;;;;;;4.80;3.20;;;;;;;18.37;50.61;102331.47;5049968;28;20186;-59
2022/01/18 06:00:05;;;;;;;4.47;2.80;;;;;;;18.35;50.76;102333.84;5049424;28;20192;-59
2022/01/18 06:02:42;;;;;;;4.30;2.93;;;;;;;18.43;50.20;102324.47;5049198;28;20465;-59
2022/01/18 06:07:54;;;;;;;5.50;3.07;;;;;;;18.39;50.73;102352.03;5049658;28;20430;-59
2022/01/18 06:10:19;;;;;;;4.10;2.93;;;;;;;18.39;50.32;102349.16;5031624;28;20487;-59
2022/01/18 06:12:45;;;;;;;4.80;3.23;;;;;;;18.38;50.64;102341.75;5049204;28;20195;-59
2022/01/18 06:15:10;;;;;;;5.53;2.87;;;;;;;18.40;50.37;102342.25;5034182;28;20246;-59
2022/01/18 06:17:36;;;;;;;3.67;2.40;;;;;;;18.43;50.39;102337.91;5035036;28;20172;-59
2022/01/18 06:20:01;;;;;;;5.20;2.90;;;;;;;18.45;50.62;102335.53;5031567;28;20175;-59
2022/01/18 06:22:27;;;;;;;3.60;2.60;;;;;;;18.40;50.57;102335.69;5048626;28;20199;-59
2022/01/18 06:24:52;;;;;;;4.60;3.20;;;;;;;18.44;50.06;102340.44;5048617;28;20179;-59
2022/01/18 06:27:17;;;;;;;4.57;2.90;;;;;;;18.37;50.67;102322.91;5047172;28;20186;-59
2022/01/18 06:29:43;;;;;;;4.47;2.90;;;;;;;18.41;50.47;102331.69;5048912;28;20230;-59
2022/01/18 06:32:08;;;;;;;4.20;2.77;;;;;;;18.45;50.29;102336.41;5045143;28;20238;-59
2022/01/18 06:34:34;;;;;;;4.10;2.80;;;;;;;18.41;50.57;102338.22;5012116;28;20524;-59
2022/01/18 06:36:59;;;;;;;4.20;3.07;;;;;;;18.40;50.42;102342.25;5011462;28;20240;-59
2022/01/18 06:39:25;;;;;;;5.57;2.73;;;;;;;18.39;50.73;102340.59;5029209;28;20173;-59
2022/01/18 06:41:50;;;;;;;6.80;2.63;;;;;;;18.39;50.68;102340.59;5033752;28;20241;-59
2022/01/18 06:44:16;;;;;;;4.10;2.93;;;;;;;18.43;50.53;102337.91;5049287;28;20175;-59
2022/01/18 06:46:41;;;;;;;3.97;2.73;;;;;;;18.43;50.44;102347.34;5031727;28;20222;-59
2022/01/18 06:49:07;;;;;;;4.10;2.67;;;;;;;18.44;50.32;102349.00;5036994;28;20595;-59
2022/01/18 06:51:33;;;;;;;3.77;2.70;;;;;;;18.41;50.38;102358.25;5031656;28;20184;-59
2022/01/18 06:53:58;;;;;;;3.53;2.50;;;;;;;18.49;50.70;102366.03;5031813;28;20172;-59
2022/01/18 06:56:26;;;;;;;3.40;2.47;;;;;;;18.41;50.60;102357.41;5041162;28;20175;-59
2022/01/18 06:58:51;;;;;;;4.27;3.10;;;;;;;18.39;50.30;102357.75;5049016;28;20192;-59
2022/01/18 07:01:17;;;;;;;3.50;2.80;;;;;;;18.39;50.43;102357.75;5048599;28;20512;-59
2022/01/18 07:03:42;;;;;;;3.87;3.03;;;;;;;18.42;50.31;102351.34;5049137;28;20246;-59
2022/01/18 07:06:08;;;;;;;3.40;2.60;;;;;;;18.44;50.21;102360.47;5049406;28;20585;-59
2022/01/18 07:08:34;;;;;;;4.00;2.47;;;;;;;18.41;50.41;102358.25;5030909;28;20203;-59
2022/01/18 07:11:00;;;;;;;3.80;2.57;;;;;;;18.41;50.53;102349.66;5048299;28;20187;-59
2022/01/18 07:13:25;;;;;;;3.47;2.43;;;;;;;18.39;50.42;102362.59;5047982;28;20430;-59
2022/01/18 07:15:50;;;;;;;5.70;2.93;;;;;;;18.38;50.52;102361.78;5048379;28;20189;-59
2022/01/18 07:18:16;;;;;;;3.30;2.33;;;;;;;18.42;50.26;102371.38;5048752;28;20210;-59
2022/01/18 07:20:41;;;;;;;3.97;2.73;;;;;;;18.42;50.73;102362.78;5048948;28;20182;-59
2022/01/18 07:23:11;;;;;;;3.93;2.80;;;;;;;18.40;50.65;102368.00;5031222;28;20180;-59
2022/01/18 07:25:42;;;;;;;3.73;2.70;;;;;;;18.41;50.81;102369.69;5049468;28;20176;-59
2022/01/18 07:28:09;;;;;;;3.80;2.40;;;;;;;18.41;50.70;102374.56;5049048;28;20457;-59
2022/01/18 07:30:34;;;;;;;7.00;5.23;;;;;;;18.33;50.33;102379.09;5029464;28;20513;-59
2022/01/18 07:33:00;;;;;;;22.63;14.87;;;;;;;18.05;49.73;102368.13;5047814;28;20445;-60
2022/01/18 07:35:27;;;;;;;25.07;17.20;;;;;;;17.67;46.22;102372.59;5049437;28;20226;-59
2022/01/18 07:37:52;;;;;;;26.20;16.70;;;;;;;18.05;46.10;102368.13;5050128;28;20588;-59
2022/01/18 07:40:18;;;;;;;26.57;16.07;;;;;;;18.46;45.71;102380.16;5051185;28;20466;-59
2022/01/18 07:42:43;;;;;;;29.03;16.37;;;;;;;18.70;46.89;102378.53;5048566;28;20580;-60
2022/01/18 07:45:09;;;;;;;21.17;14.27;;;;;;;18.94;46.84;102390.41;5051834;28;20179;-59
2022/01/18 07:47:35;;;;;;;26.40;16.27;;;;;;;19.31;47.27;102380.41;5051400;28;20472;-59
2022/01/18 07:50:00;;;;;;;22.70;14.63;;;;;;;19.64;46.23;102387.28;5051421;28;20457;-59
2022/01/18 07:52:26;;;;;;;21.53;14.40;;;;;;;19.87;45.60;102386.75;5050816;28;20168;-59
2022/01/18 07:54:51;;;;;;;19.10;13.90;;;;;;;19.93;45.21;102393.16;5051938;28;20195;-60
2022/01/18 07:57:19;;;;;;;19.60;12.87;;;;;;;19.96;45.42;102390.44;5052128;28;20174;-58
2022/01/18 07:59:44;;;;;;;22.67;13.33;;;;;;;19.93;44.92;102401.75;5050971;28;20183;-59
2022/01/18 08:02:10;;;;;;;17.00;12.00;;;;;;;19.55;46.01;102395.03;5051140;28;20465;-59
2022/01/18 08:04:35;;;;;;;18.53;12.10;;;;;;;19.52;47.15;102390.00;5048558;28;20199;-59
2022/01/18 08:07:01;;;;;;;24.07;13.23;;;;;;;19.61;46.51;102383.06;5051477;28;20203;-60
2022/01/18 08:09:26;;;;;;;18.20;11.70;;;;;;;19.57;46.37;102390.66;5050878;28;20210;-59
2022/01/18 08:11:52;;;;;;;22.70;12.30;;;;;;;19.42;47.78;102381.75;5050420;28;20188;-59
2022/01/18 08:14:18;;;;;;;16.07;10.43;;;;;;;19.47;47.20;102382.41;5049655;28;20172;-59
2022/01/18 08:17:00;;;;;;;19.43;12.00;;;;;;;19.35;48.05;102379.38;5051740;28;20422;-59
2022/01/18 08:19:26;;;;;;;16.70;11.03;;;;;;;19.28;48.35;102381.91;5050839;28;20191;-59
2022/01/18 08:21:51;;;;;;;14.07;10.27;;;;;;;19.26;48.70;102389.97;5052251;28;20795;-59
2022/01/18 08:24:17;;;;;;;14.20;9.27;;;;;;;19.24;48.97;102383.75;5051358;28;20426;-59
2022/01/18 08:26:42;;;;;;;17.30;10.60;;;;;;;19.21;48.35;102389.28;5049843;28;20427;-59
2022/01/18 08:29:08;;;;;;;14.47;10.00;;;;;;;19.23;48.29;102379.22;5050318;28;20277;-59
2022/01/18 08:31:33;;;;;;;14.77;9.90;;;;;;;19.06;48.13;102382.00;5050522;28;20188;-59
2022/01/18 08:33:59;;;;;;;13.47;9.97;;;;;;;18.89;47.49;102387.69;5051080;28;20211;-59
2022/01/18 08:36:24;;;;;;;16.03;11.57;;;;;;;18.84;46.81;102387.84;5051591;28;20203;-59
2022/01/18 08:38:50;;;;;;;15.50;11.10;;;;;;;18.96;46.46;102385.19;5050493;28;20635;-59
2022/01/18 08:41:16;;;;;;;19.83;10.10;;;;;;;18.96;46.89;102381.50;5050413;28;20202;-59
2022/01/18 08:43:41;;;;;;;16.50;10.47;;;;;;;18.81;47.27;102384.81;5051107;28;20194;-59
2022/01/18 08:46:08;;;;;;;13.97;9.77;;;;;;;18.77;47.48;102386.66;5049970;28;20191;-59
2022/01/18 08:48:35;;;;;;;14.97;9.77;;;;;;;18.74;47.38;102382.44;5050361;28;20659;-59
2022/01/18 08:51:00;;;;;;;14.70;10.57;;;;;;;18.66;47.56;102386.09;5049869;28;20776;-59
2022/01/18 08:53:26;;;;;;;14.70;9.80;;;;;;;18.62;47.59;102379.34;5036421;28;20434;-59
2022/01/18 08:55:52;;;;;;;13.13;9.07;;;;;;;18.58;47.45;102384.06;5031209;28;20180;-59
2022/01/18 08:58:18;;;;;;;13.93;8.80;;;;;;;18.55;47.95;102383.88;5043541;28;20183;-59
2022/01/18 09:00:43;;;;;;;22.60;9.60;;;;;;;18.59;48.61;102382.88;5032302;28;20435;-59
2022/01/18 09:03:09;;;;;;;19.70;9.97;;;;;;;18.54;49.26;102383.03;5034394;28;20640;-59
2022/01/18 09:05:37;;;;;;;19.67;9.77;;;;;;;18.55;49.43;102376.13;5030369;28;20677;-59
2022/01/18 09:08:05;;;;;;;21.03;9.57;;;;;;;18.62;48.79;102382.22;5029946;28;20184;-59
2022/01/18 09:10:31;;;;;;;16.77;9.63;;;;;;;18.62;49.40;102379.34;5030016;28;20431;-59
2022/01/18 09:12:56;;;;;;;20.33;9.40;;;;;;;18.66;49.16;102386.09;5043099;28;20831;-59
2022/01/18 09:15:24;;;;;;;20.17;8.97;;;;;;;18.64;49.60;102382.75;5050255;28;20218;-59
2022/01/18 09:17:49;;;;;;;15.87;8.63;;;;;;;18.67;49.41;102389.81;5050336;28;20178;-59
2022/01/18 09:20:15;;;;;;;14.67;8.03;;;;;;;18.65;49.68;102387.28;5050214;28;20917;-59
2022/01/18 09:22:42;;;;;;;18.90;8.63;;;;;;;18.70;49.48;102392.00;5050698;28;20179;-60
2022/01/18 09:25:16;;;;;;;16.90;7.90;;;;;;;18.74;49.19;102393.88;5029364;28;20172;-59
2022/01/18 09:27:41;;;;;;;13.03;7.50;;;;;;;18.74;49.57;102398.75;5050889;28;20497;-59
2022/01/18 09:30:07;;;;;;;17.60;8.00;;;;;;;18.74;49.24;102393.88;5049873;28;20458;-59
2022/01/18 09:32:33;;;;;;;13.57;7.13;;;;;;;18.74;49.79;102402.47;5023993;28;20192;-59
2022/01/18 09:34:58;;;;;;;14.33;8.10;;;;;;;18.75;49.85;102401.28;5030632;28;20422;-59
2022/01/18 09:37:23;;;;;;;13.67;7.40;;;;;;;18.74;49.89;102405.34;5032277;28;20176;-59
2022/01/18 09:39:49;;;;;;;9.20;6.30;;;;;;;18.71;49.59;102400.25;5033234;28;20349;-58
2022/01/18 09:42:14;;;;;;;10.10;6.33;;;;;;;18.70;49.79;102404.28;5049548;28;20180;-59
2022/01/18 09:44:40;;;;;;;11.07;6.37;;;;;;;18.75;49.66;102406.16;5046918;28;20245;-59
2022/01/18 09:47:06;;;;;;;13.83;7.03;;;;;;;18.69;50.00;102410.34;5050161;28;20194;-59
2022/01/18 09:49:34;;;;;;;9.90;6.60;;;;;;;18.74;49.90;102405.34;5034103;28;20196;-59
2022/01/18 09:51:59;;;;;;;14.27;6.70;;;;;;;18.70;49.93;102407.16;5029978;28;20172;-59
2022/01/18 09:54:25;;;;;;;12.20;6.17;;;;;;;18.72;50.08;102401.94;5029145;28;20429;-59
2022/01/18 09:56:50;;;;;;;15.90;6.70;;;;;;;18.69;50.22;102398.91;5028417;28;20164;-59
2022/01/18 09:59:16;;;;;;;15.90;6.60;;;;;;;18.66;50.35;102399.59;5029561;28;20184;-59
2022/01/18 10:01:42;;;;;;;10.33;5.67;;;;;;;18.71;50.29;102399.44;5031373;28;20231;-59
2022/01/18 10:04:15;;;;;;;10.00;6.20;;;;;;;18.70;50.39;102398.56;5030943;28;20826;-59
2022/01/18 10:06:41;;;;;;;12.70;6.60;;;;;;;18.72;50.06;102399.06;5029950;28;20202;-59
2022/01/18 10:09:11;;;;;;;11.80;6.10;;;;;;;18.71;50.15;102397.41;5028725;28;20554;-59
2022/01/18 10:11:36;;;;;;;9.13;5.53;;;;;;;18.69;50.55;102402.63;5032093;28;20407;-59
2022/01/18 10:14:02;;;;;;;11.97;6.00;;;;;;;18.66;50.38;102402.44;5049655;28;20913;-59
2022/01/18 10:16:27;;;;;;;10.10;5.73;;;;;;;18.67;50.33;102399.22;5032081;28;20192;-59
2022/01/18 10:18:56;;;;;;;13.57;5.70;;;;;;;18.66;50.60;102388.97;5049055;28;20175;-59
2022/01/18 10:21:31;;;;;;;8.03;4.87;;;;;;;18.65;50.56;102378.69;5030151;28;20182;-59
2022/01/18 10:24:34;;;;;;;8.70;5.57;;;;;;;18.71;50.30;102377.38;5048720;28;20426;-59
2022/01/18 10:27:00;;;;;;;7.90;5.03;;;;;;;18.64;50.64;102377.03;4968546;28;20442;-59
2022/01/18 10:29:30;;;;;;;9.13;5.13;;;;;;;18.63;50.75;102383.91;4967074;28;20484;-59
2022/01/18 10:31:58;;;;;;;12.70;4.97;;;;;;;18.64;50.48;102381.88;5007449;28;20188;-59
2022/01/18 10:35:13;;;;;;;8.40;4.47;;;;;;;18.67;50.63;102381.22;5048196;28;20422;-59
2022/01/18 10:37:16;;;;;;;9.20;4.70;;;;;;;18.65;50.76;102389.28;5031690;28;20488;-57
2022/01/18 10:39:54;;;;;;;8.37;4.73;;;;;;;18.69;50.64;102382.59;5049738;28;20425;-59
2022/01/18 10:42:39;;;;;;;9.40;5.90;;;;;;;18.66;50.61;102371.78;5048688;28;20422;-59
2022/01/18 10:45:14;;;;;;;9.17;5.03;;;;;;;18.72;50.56;102373.31;5049225;28;20445;-59
2022/01/18 10:47:57;;;;;;;10.73;4.37;;;;;;;18.68;50.89;102372.31;5049254;28;20424;-59
2022/01/18 10:50:22;;;;;;;8.63;5.27;;;;;;;18.71;50.49;102362.25;5031999;28;20422;-59
2022/01/18 10:52:49;;;;;;;8.20;5.60;;;;;;;18.67;50.78;102370.63;5029342;28;20770;-59
2022/01/18 10:55:17;;;;;;;9.60;4.60;;;;;;;18.72;50.58;102373.31;5028963;28;20176;-59
2022/01/18 10:57:43;;;;;;;7.87;5.00;;;;;;;18.70;50.80;102369.97;5029444;28;20432;-59
2022/01/18 11:00:09;;;;;;;10.40;4.47;;;;;;;18.68;50.46;102355.16;5031665;28;20415;-59
2022/01/18 11:02:36;;;;;;;6.30;4.93;;;;;;;18.72;51.05;102352.47;5043313;28;20219;-59
2022/01/18 11:05:21;;;;;;;9.97;4.97;;;;;;;18.83;50.56;102353.84;5049052;28;20425;-59
2022/01/18 11:07:48;;;;;;;7.50;3.87;;;;;;;18.73;50.80;102343.56;5031530;28;20527;-58
2022/01/18 11:10:15;;;;;;;9.70;4.27;;;;;;;18.74;50.98;102342.38;5048122;28;20461;-57
2022/01/18 11:13:02;;;;;;;7.97;4.77;;;;;;;18.66;51.03;102348.09;5050533;28;20430;-58
2022/01/18 11:15:28;;;;;;;7.30;4.33;;;;;;;18.65;51.22;102337.78;5052755;28;20401;-57
2022/01/18 11:18:00;;;;;;;10.40;4.73;;;;;;;18.65;50.86;102332.94;5052540;28;20815;-57
2022/01/18 11:20:27;;;;;;;6.10;4.53;;;;;;;18.69;51.14;102331.09;5052413;28;20410;-58
2022/01/18 11:22:52;;;;;;;6.60;4.17;;;;;;;18.65;50.90;102330.06;5052870;28;20420;-60
2022/01/18 11:25:18;;;;;;;7.47;4.53;;;;;;;18.66;51.09;102322.34;5052903;28;20961;-58
2022/01/18 11:27:48;;;;;;;6.10;4.53;;;;;;;18.64;51.42;102331.25;5052347;28;20221;-59
2022/01/18 11:30:14;;;;;;;5.90;4.50;;;;;;;18.63;51.14;102328.72;5051854;28;20211;-59
2022/01/18 11:32:39;;;;;;;6.27;4.50;;;;;;;18.67;51.18;102330.56;5040049;28;20982;-59
2022/01/18 11:35:11;;;;;;;9.73;4.67;;;;;;;18.64;51.09;102331.25;5032776;28;20191;-59
2022/01/18 11:37:45;;;;;;;6.70;4.77;;;;;;;18.70;51.07;102318.47;5032854;28;20175;-59
2022/01/18 11:40:13;;;;;;;5.97;4.37;;;;;;;18.67;51.09;102319.13;5034820;28;20438;-59
2022/01/18 11:43:02;;;;;;;7.07;4.17;;;;;;;18.68;51.59;102315.09;5051884;28;20488;-60
2022/01/18 11:45:29;;;;;;;7.00;4.40;;;;;;;18.69;51.31;102324.50;5052506;28;20403;-59
2022/01/18 11:48:15;;;;;;;8.20;4.63;;;;;;;18.69;51.06;102319.66;5050577;28;20431;-59
2022/01/18 11:50:46;;;;;;;5.87;3.93;;;;;;;18.66;51.62;102314.56;5031177;28;20473;-59
2022/01/18 11:53:24;;;;;;;4.63;3.33;;;;;;;18.68;51.28;102312.25;5031906;28;20511;-58
2022/01/18 11:55:51;;;;;;;8.80;4.10;;;;;;;18.70;51.17;102318.47;5031811;28;20393;-58
2022/01/18 11:58:17;;;;;;;6.50;4.10;;;;;;;18.68;51.27;102309.38;5032517;28;20930;-58
2022/01/18 12:00:55;;;;;;;10.53;4.17;;;;;;;18.68;51.34;102305.66;5031945;28;20395;-58
2022/01/18 12:03:27;;;;;;;6.97;4.63;;;;;;;18.68;51.20;102303.66;5032025;28;20192;-58
2022/01/18 12:05:53;;;;;;;5.53;3.90;;;;;;;18.67;51.53;102304.81;5032312;28;20807;-58
2022/01/18 12:08:37;;;;;;;8.30;4.67;;;;;;;18.66;51.68;102299.44;5031824;28;20962;-58
2022/01/18 12:11:10;;;;;;;6.23;4.00;;;;;;;18.68;51.36;102297.94;5035431;28;20857;-58
2022/01/18 12:13:38;;;;;;;6.50;4.17;;;;;;;18.64;51.68;102302.63;5051200;28;20781;-58
2022/01/18 12:16:10;;;;;;;8.60;4.37;;;;;;;18.66;51.36;102288.00;5051508;28;20424;-58
2022/01/18 12:18:47;;;;;;;4.27;3.30;;;;;;;18.68;51.38;102289.34;5033919;28;20777;-58
2022/01/18 12:21:20;;;;;;;7.47;4.40;;;;;;;18.65;51.70;102284.28;5035654;28;20410;-59
2022/01/18 12:23:45;;;;;;;6.40;3.80;;;;;;;18.66;51.48;102277.38;5049885;28;20450;-58
2022/01/18 12:26:31;;;;;;;7.80;4.30;;;;;;;18.64;51.81;102276.03;5052041;28;20509;-58
2022/01/18 12:29:22;;;;;;;4.90;3.63;;;;;;;18.65;51.41;102281.44;5050980;28;20690;-58
2022/01/18 12:34:47;;;;;;;6.93;3.50;;;;;;;18.67;51.53;102276.19;5031938;28;20427;-58
2022/01/18 12:37:14;;;;;;;3.90;3.00;;;;;;;18.70;51.41;102266.09;5016681;28;20188;-58
2022/01/18 12:40:03;;;;;;;6.70;3.70;;;;;;;18.66;51.41;102262.25;5031474;28;20415;-58
2022/01/18 12:45:07;;;;;;;5.50;3.50;;;;;;;18.70;51.46;102266.97;5051703;28;20426;-58